METAR Data
IDs: Format: Raw Decoded Include TAF

Data at: 1504 UTC 16 Feb 2019

METAR for:KSGH (Springfield Muni, OH, US)
Text:KSGH 161456Z AUTO 04009KT 10SM OVC012 M06/M08 A3005 RMK AO2 SLP192 T10561078 51010
Temperature: -5.6°C ( 22°F)
Dewpoint: -7.8°C ( 18°F) [RH = 84%]
Pressure (altimeter):30.05 inches Hg (1017.7 mb) [Sea level pressure: 1019.2 mb]
Winds:from the NE (40 degrees) at 10 MPH (9 knots; 4.6 m/s)
Visibility:10 or more sm (16+ km)
Ceiling:1200 feet AGL
Clouds: overcast cloud deck at 1200 feet AGL
QC Flag:automated observation with no human augmentation